ΕΜΥ, Εθνική Μετεωρολογική Υπηρεσία - Δελτία Καιρού, Προγνώσεις

ΑΕΡΟΝΑΥΤΙΛΙΑ

GREEK AIRPORTS CODES

TAF LGAV 221700Z 2218/2318 02014KT 9999 FEW020 BECMG 2218/2220 VRB05KT BECMG 2313/2315 20012KT=

EUROPEAN AIRPORTS CODES